sensor_id;sensor_type;location;lat;lon;timestamp;pressure;altitude;pressure_sealevel;temperature;humidity
10060;BME280;5069;49.306;8.636;2023-04-15T00:02:22;99578.38;;;8.21;83.53
10060;BME280;5069;49.306;8.636;2023-04-15T00:05:24;99577.91;;;8.10;84.03
10060;BME280;5069;49.306;8.636;2023-04-15T00:08:27;99572.03;;;8.04;84.83
10060;BME280;5069;49.306;8.636;2023-04-15T00:11:30;99572.25;;;7.98;85.39
10060;BME280;5069;49.306;8.636;2023-04-15T00:14:33;99570.78;;;7.91;86.59
10060;BME280;5069;49.306;8.636;2023-04-15T00:17:36;99578.25;;;7.76;86.06
10060;BME280;5069;49.306;8.636;2023-04-15T00:20:40;99576.47;;;7.27;85.79
10060;BME280;5069;49.306;8.636;2023-04-15T00:24:04;99580.63;;;7.06;86.49
10060;BME280;5069;49.306;8.636;2023-04-15T00:27:06;99577.25;;;7.03;87.28
10060;BME280;5069;49.306;8.636;2023-04-15T00:30:07;99573.59;;;7.09;86.20
10060;BME280;5069;49.306;8.636;2023-04-15T00:33:09;99571.38;;;7.23;86.13
10060;BME280;5069;49.306;8.636;2023-04-15T00:36:11;99569.56;;;7.25;86.74
10060;BME280;5069;49.306;8.636;2023-04-15T00:39:13;99573.00;;;7.27;86.20
10060;BME280;5069;49.306;8.636;2023-04-15T00:42:17;99568.50;;;7.30;85.59
10060;BME280;5069;49.306;8.636;2023-04-15T00:45:20;99563.31;;;7.29;86.39
10060;BME280;5069;49.306;8.636;2023-04-15T00:48:22;99564.44;;;7.22;86.77
10060;BME280;5069;49.306;8.636;2023-04-15T00:51:24;99572.50;;;7.16;87.35
10060;BME280;5069;49.306;8.636;2023-04-15T00:54:26;99566.94;;;6.98;88.87
10060;BME280;5069;49.306;8.636;2023-04-15T00:57:28;99568.16;;;6.88;90.13
10060;BME280;5069;49.306;8.636;2023-04-15T01:00:31;99567.31;;;6.86;90.32
10060;BME280;5069;49.306;8.636;2023-04-15T01:03:33;99562.38;;;6.77;89.90
10060;BME280;5069;49.306;8.636;2023-04-15T01:06:35;99568.84;;;6.66;89.38
10060;BME280;5069;49.306;8.636;2023-04-15T01:09:37;99565.31;;;6.67;89.51
10060;BME280;5069;49.306;8.636;2023-04-15T01:12:39;99568.97;;;6.61;89.70
10060;BME280;5069;49.306;8.636;2023-04-15T01:15:41;99565.53;;;6.60;89.65
10060;BME280;5069;49.306;8.636;2023-04-15T01:18:44;99557.34;;;6.71;89.51
10060;BME280;5069;49.306;8.636;2023-04-15T01:22:07;99564.19;;;6.75;89.64
10060;BME280;5069;49.306;8.636;2023-04-15T01:25:17;99566.09;;;6.70;89.62
10060;BME280;5069;49.306;8.636;2023-04-15T01:28:19;99567.09;;;6.66;90.62
10060;BME280;5069;49.306;8.636;2023-04-15T01:31:21;99569.72;;;6.66;91.31
10060;BME280;5069;49.306;8.636;2023-04-15T01:34:23;99557.53;;;6.65;92.13
10060;BME280;5069;49.306;8.636;2023-04-15T01:37:27;99561.97;;;6.61;92.61
10060;BME280;5069;49.306;8.636;2023-04-15T01:40:30;99564.66;;;6.60;93.10
10060;BME280;5069;49.306;8.636;2023-04-15T01:43:34;99570.81;;;6.59;93.90
10060;BME280;5069;49.306;8.636;2023-04-15T01:46:36;99566.75;;;6.49;93.41
10060;BME280;5069;49.306;8.636;2023-04-15T01:49:38;99565.97;;;6.45;93.63
10060;BME280;5069;49.306;8.636;2023-04-15T01:52:40;99569.38;;;6.49;93.97
10060;BME280;5069;49.306;8.636;2023-04-15T01:55:43;99576.31;;;6.50;93.29
10060;BME280;5069;49.306;8.636;2023-04-15T01:58:48;99571.38;;;6.39;93.63
10060;BME280;5069;49.306;8.636;2023-04-15T02:01:50;99565.19;;;6.14;94.38
10060;BME280;5069;49.306;8.636;2023-04-15T02:04:53;99565.06;;;5.86;94.68
10060;BME280;5069;49.306;8.636;2023-04-15T02:07:55;99563.84;;;5.67;95.20
10060;BME280;5069;49.306;8.636;2023-04-15T02:10:57;99568.97;;;5.70;95.88
10060;BME280;5069;49.306;8.636;2023-04-15T02:13:59;99565.47;;;5.71;95.06
10060;BME280;5069;49.306;8.636;2023-04-15T02:17:01;99567.19;;;5.72;95.35
10060;BME280;5069;49.306;8.636;2023-04-15T02:20:08;99575.75;;;5.77;94.66
10060;BME280;5069;49.306;8.636;2023-04-15T02:23:13;99572.41;;;5.72;95.17
10060;BME280;5069;49.306;8.636;2023-04-15T02:26:17;99569.66;;;5.76;95.22
10060;BME280;5069;49.306;8.636;2023-04-15T02:29:19;99568.56;;;5.85;95.22
10060;BME280;5069;49.306;8.636;2023-04-15T02:32:21;99565.06;;;5.86;94.73
10060;BME280;5069;49.306;8.636;2023-04-15T02:35:28;99564.44;;;5.76;95.13
10060;BME280;5069;49.306;8.636;2023-04-15T02:38:31;99565.75;;;5.60;94.99
10060;BME280;5069;49.306;8.636;2023-04-15T02:41:33;99568.63;;;5.51;95.78
10060;BME280;5069;49.306;8.636;2023-04-15T02:44:36;99567.75;;;5.51;96.46
10060;BME280;5069;49.306;8.636;2023-04-15T02:47:39;99572.19;;;5.47;96.08
10060;BME280;5069;49.306;8.636;2023-04-15T02:50:43;99572.31;;;5.43;95.95
10060;BME280;5069;49.306;8.636;2023-04-15T02:53:47;99564.72;;;5.33;95.21
10060;BME280;5069;49.306;8.636;2023-04-15T02:56:50;99571.81;;;5.28;95.33
10060;BME280;5069;49.306;8.636;2023-04-15T02:59:56;99566.81;;;5.19;95.73
10060;BME280;5069;49.306;8.636;2023-04-15T03:03:03;99567.75;;;5.18;95.64
10060;BME280;5069;49.306;8.636;2023-04-15T03:06:05;99572.84;;;5.23;95.41
10060;BME280;5069;49.306;8.636;2023-04-15T03:09:07;99579.78;;;5.24;95.25
10060;BME280;5069;49.306;8.636;2023-04-15T03:12:11;99576.31;;;5.23;95.26
10060;BME280;5069;49.306;8.636;2023-04-15T03:15:12;99577.06;;;5.28;95.17
10060;BME280;5069;49.306;8.636;2023-04-15T03:18:18;99575.34;;;5.27;94.47
10060;BME280;5069;49.306;8.636;2023-04-15T03:21:22;99570.84;;;5.32;95.25
10060;BME280;5069;49.306;8.636;2023-04-15T03:24:45;99577.13;;;5.25;94.94
10060;BME280;5069;49.306;8.636;2023-04-15T03:27:47;99577.41;;;5.13;95.31
10060;BME280;5069;49.306;8.636;2023-04-15T03:30:50;99579.44;;;5.02;95.83
10060;BME280;5069;49.306;8.636;2023-04-15T03:33:54;99572.59;;;4.96;96.79
10060;BME280;5069;49.306;8.636;2023-04-15T03:36:57;99572.81;;;4.89;96.42
10060;BME280;5069;49.306;8.636;2023-04-15T03:39:59;99576.22;;;4.91;96.79
10060;BME280;5069;49.306;8.636;2023-04-15T03:43:00;99577.78;;;4.98;96.62
10060;BME280;5069;49.306;8.636;2023-04-15T03:46:02;99574.22;;;5.02;95.42
10060;BME280;5069;49.306;8.636;2023-04-15T03:49:06;99584.75;;;4.99;95.79
10060;BME280;5069;49.306;8.636;2023-04-15T03:52:07;99581.59;;;4.85;96.00
10060;BME280;5069;49.306;8.636;2023-04-15T03:55:09;99577.34;;;4.79;97.01
10060;BME280;5069;49.306;8.636;2023-04-15T03:58:13;99574.59;;;4.87;98.61
10060;BME280;5069;49.306;8.636;2023-04-15T04:01:16;99570.78;;;5.00;97.63
10060;BME280;5069;49.306;8.636;2023-04-15T04:04:18;99575.06;;;5.03;96.76
10060;BME280;5069;49.306;8.636;2023-04-15T04:07:22;99581.28;;;4.97;96.83
10060;BME280;5069;49.306;8.636;2023-04-15T04:10:25;99583.75;;;5.05;95.79
10060;BME280;5069;49.306;8.636;2023-04-15T04:13:27;99582.78;;;5.07;95.43
10060;BME280;5069;49.306;8.636;2023-04-15T04:16:29;99587.94;;;5.12;97.41
10060;BME280;5069;49.306;8.636;2023-04-15T04:19:32;99594.75;;;5.17;97.42
10060;BME280;5069;49.306;8.636;2023-04-15T04:22:38;99588.53;;;5.21;98.21
10060;BME280;5069;49.306;8.636;2023-04-15T04:25:42;99590.56;;;5.10;98.25
10060;BME280;5069;49.306;8.636;2023-04-15T04:28:44;99585.50;;;5.04;98.44
10060;BME280;5069;49.306;8.636;2023-04-15T04:31:46;99589.97;;;4.99;99.41
10060;BME280;5069;49.306;8.636;2023-04-15T04:34:49;99600.56;;;4.93;99.73
10060;BME280;5069;49.306;8.636;2023-04-15T04:37:51;99599.66;;;4.94;99.49
10060;BME280;5069;49.306;8.636;2023-04-15T04:40:53;99598.97;;;4.86;100.00
10060;BME280;5069;49.306;8.636;2023-04-15T04:43:54;99597.19;;;4.88;100.00
10060;BME280;5069;49.306;8.636;2023-04-15T04:46:56;99600.56;;;4.93;100.00
10060;BME280;5069;49.306;8.636;2023-04-15T04:49:58;99601.41;;;4.93;100.00
10060;BME280;5069;49.306;8.636;2023-04-15T04:53:00;99602.13;;;5.00;100.00
10060;BME280;5069;49.306;8.636;2023-04-15T04:56:02;99595.91;;;5.06;100.00
10060;BME280;5069;49.306;8.636;2023-04-15T04:59:04;99606.53;;;4.98;100.00
10060;BME280;5069;49.306;8.636;2023-04-15T05:02:07;99604.78;;;4.98;100.00
10060;BME280;5069;49.306;8.636;2023-04-15T05:05:09;99605.53;;;5.02;100.00
10060;BME280;5069;49.306;8.636;2023-04-15T05:08:12;99607.41;;;4.97;100.00
10060;BME280;5069;49.306;8.636;2023-04-15T05:11:13;99614.44;;;4.95;100.00
10060;BME280;5069;49.306;8.636;2023-04-15T05:14:37;99611.72;;;4.99;100.00
10060;BME280;5069;49.306;8.636;2023-04-15T05:17:40;99611.06;;;5.27;100.00
10060;BME280;5069;49.306;8.636;2023-04-15T05:20:42;99608.78;;;5.47;100.00
10060;BME280;5069;49.306;8.636;2023-04-15T05:23:44;99614.88;;;5.48;99.18
10060;BME280;5069;49.306;8.636;2023-04-15T05:26:46;99612.94;;;5.20;100.00
10060;BME280;5069;49.306;8.636;2023-04-15T05:29:47;99617.38;;;5.18;100.00
10060;BME280;5069;49.306;8.636;2023-04-15T05:32:49;99622.75;;;5.12;100.00
10060;BME280;5069;49.306;8.636;2023-04-15T05:35:51;99622.81;;;5.09;100.00
10060;BME280;5069;49.306;8.636;2023-04-15T05:38:53;99626.44;;;5.02;100.00
10060;BME280;5069;49.306;8.636;2023-04-15T05:41:55;99628.28;;;4.98;100.00
10060;BME280;5069;49.306;8.636;2023-04-15T05:44:58;99629.75;;;5.10;100.00
10060;BME280;5069;49.306;8.636;2023-04-15T05:48:03;99624.38;;;5.16;100.00
10060;BME280;5069;49.306;8.636;2023-04-15T05:51:05;99619.00;;;5.22;100.00
10060;BME280;5069;49.306;8.636;2023-04-15T05:54:07;99627.34;;;5.36;100.00
10060;BME280;5069;49.306;8.636;2023-04-15T05:57:09;99628.91;;;5.45;100.00
10060;BME280;5069;49.306;8.636;2023-04-15T06:00:11;99634.84;;;5.52;100.00
10060;BME280;5069;49.306;8.636;2023-04-15T06:03:14;99638.94;;;5.62;100.00
10060;BME280;5069;49.306;8.636;2023-04-15T06:06:16;99638.97;;;5.59;99.85
10060;BME280;5069;49.306;8.636;2023-04-15T06:09:18;99634.69;;;5.58;100.00
10060;BME280;5069;49.306;8.636;2023-04-15T06:12:22;99632.75;;;5.64;100.00
10060;BME280;5069;49.306;8.636;2023-04-15T06:15:24;99645.59;;;5.73;99.72
10060;BME280;5069;49.306;8.636;2023-04-15T06:18:26;99647.06;;;5.83;99.80
10060;BME280;5069;49.306;8.636;2023-04-15T06:21:28;99644.94;;;5.99;99.91
10060;BME280;5069;49.306;8.636;2023-04-15T06:24:30;99651.75;;;6.05;99.19
10060;BME280;5069;49.306;8.636;2023-04-15T06:27:33;99655.72;;;6.19;98.52
10060;BME280;5069;49.306;8.636;2023-04-15T06:30:35;99654.56;;;6.30;98.17
10060;BME280;5069;49.306;8.636;2023-04-15T06:33:37;99648.75;;;6.49;97.86
10060;BME280;5069;49.306;8.636;2023-04-15T06:36:38;99653.38;;;6.71;97.39
10060;BME280;5069;49.306;8.636;2023-04-15T06:39:39;99648.72;;;6.80;96.20
10060;BME280;5069;49.306;8.636;2023-04-15T06:42:41;99649.03;;;6.99;95.04
10060;BME280;5069;49.306;8.636;2023-04-15T06:45:43;99647.59;;;7.17;93.73
10060;BME280;5069;49.306;8.636;2023-04-15T06:48:45;99646.19;;;7.33;92.26
10060;BME280;5069;49.306;8.636;2023-04-15T06:51:48;99652.22;;;7.35;92.19
10060;BME280;5069;49.306;8.636;2023-04-15T06:54:49;99645.41;;;7.29;93.51
10060;BME280;5069;49.306;8.636;2023-04-15T06:57:51;99650.16;;;7.46;92.81
10060;BME280;5069;49.306;8.636;2023-04-15T07:00:53;99645.69;;;7.48;92.67
10060;BME280;5069;49.306;8.636;2023-04-15T07:03:55;99641.63;;;7.64;92.19
10060;BME280;5069;49.306;8.636;2023-04-15T07:06:57;99638.03;;;7.68;91.99
10060;BME280;5069;49.306;8.636;2023-04-15T07:10:03;99637.50;;;7.83;91.47
10060;BME280;5069;49.306;8.636;2023-04-15T07:13:06;99638.88;;;7.94;90.06
10060;BME280;5069;49.306;8.636;2023-04-15T07:16:09;99635.97;;;8.26;89.52
10060;BME280;5069;49.306;8.636;2023-04-15T07:19:10;99629.31;;;8.65;88.20
10060;BME280;5069;49.306;8.636;2023-04-15T07:22:12;99625.03;;;9.06;87.52
10060;BME280;5069;49.306;8.636;2023-04-15T07:25:14;99619.31;;;9.19;86.24
10060;BME280;5069;49.306;8.636;2023-04-15T07:28:16;99624.78;;;9.34;85.24
10060;BME280;5069;49.306;8.636;2023-04-15T07:31:18;99619.09;;;9.23;84.41
10060;BME280;5069;49.306;8.636;2023-04-15T07:34:20;99630.63;;;9.21;86.11
10060;BME280;5069;49.306;8.636;2023-04-15T07:37:21;99633.13;;;9.02;85.85
10060;BME280;5069;49.306;8.636;2023-04-15T07:40:23;99635.78;;;9.00;86.02
10060;BME280;5069;49.306;8.636;2023-04-15T07:43:25;99628.47;;;9.30;86.06
10060;BME280;5069;49.306;8.636;2023-04-15T07:46:27;99625.66;;;9.57;84.52
10060;BME280;5069;49.306;8.636;2023-04-15T07:49:29;99627.63;;;9.72;83.26
10060;BME280;5069;49.306;8.636;2023-04-15T07:52:32;99629.47;;;9.90;82.79
10060;BME280;5069;49.306;8.636;2023-04-15T07:55:39;99624.47;;;10.04;82.23
10060;BME280;5069;49.306;8.636;2023-04-15T07:58:41;99626.81;;;10.10;81.32
10060;BME280;5069;49.306;8.636;2023-04-15T08:01:44;99628.31;;;10.17;80.09
10060;BME280;5069;49.306;8.636;2023-04-15T08:04:46;99627.28;;;10.20;79.82
10060;BME280;5069;49.306;8.636;2023-04-15T08:07:49;99626.22;;;10.44;80.52
10060;BME280;5069;49.306;8.636;2023-04-15T08:10:51;99627.94;;;10.64;79.03
10060;BME280;5069;49.306;8.636;2023-04-15T08:13:53;99623.09;;;10.55;77.82
10060;BME280;5069;49.306;8.636;2023-04-15T08:16:55;99626.38;;;10.60;78.67
10060;BME280;5069;49.306;8.636;2023-04-15T08:19:57;99622.53;;;11.04;79.82
10060;BME280;5069;49.306;8.636;2023-04-15T08:22:58;99621.81;;;11.37;77.03
10060;BME280;5069;49.306;8.636;2023-04-15T08:26:01;99628.84;;;11.72;75.45
10060;BME280;5069;49.306;8.636;2023-04-15T08:29:02;99635.44;;;12.15;74.54
10060;BME280;5069;49.306;8.636;2023-04-15T08:32:05;99636.06;;;12.20;73.22
10060;BME280;5069;49.306;8.636;2023-04-15T08:35:07;99635.53;;;12.14;64.18
10060;BME280;5069;49.306;8.636;2023-04-15T08:38:09;99641.13;;;12.08;72.16
10060;BME280;5069;49.306;8.636;2023-04-15T08:41:55;99638.09;;;12.48;71.03
10060;BME280;5069;49.306;8.636;2023-04-15T08:45:03;99637.66;;;12.07;62.17
10060;BME280;5069;49.306;8.636;2023-04-15T08:48:06;99635.22;;;12.02;62.02
10060;BME280;5069;49.306;8.636;2023-04-15T08:51:10;99646.03;;;12.15;62.01
10060;BME280;5069;49.306;8.636;2023-04-15T08:54:17;99641.09;;;12.25;61.21
10060;BME280;5069;49.306;8.636;2023-04-15T08:57:19;99630.38;;;12.28;61.47
10060;BME280;5069;49.306;8.636;2023-04-15T09:00:21;99638.00;;;12.34;60.83
10060;BME280;5069;49.306;8.636;2023-04-15T09:03:25;99636.41;;;12.47;61.07
10060;BME280;5069;49.306;8.636;2023-04-15T09:06:27;99640.03;;;12.77;59.57
10060;BME280;5069;49.306;8.636;2023-04-15T09:09:29;99646.16;;;12.62;60.13
10060;BME280;5069;49.306;8.636;2023-04-15T09:12:34;99647.38;;;12.72;59.64
10060;BME280;5069;49.306;8.636;2023-04-15T09:15:37;99648.09;;;12.92;59.65
10060;BME280;5069;49.306;8.636;2023-04-15T09:18:42;99642.81;;;13.23;59.49
10060;BME280;5069;49.306;8.636;2023-04-15T09:21:46;99637.94;;;13.31;58.75
10060;BME280;5069;49.306;8.636;2023-04-15T09:24:48;99641.09;;;13.53;56.22
10060;BME280;5069;49.306;8.636;2023-04-15T09:27:54;99650.72;;;13.39;57.02
10060;BME280;5069;49.306;8.636;2023-04-15T09:31:00;99648.34;;;13.34;57.14
10060;BME280;5069;49.306;8.636;2023-04-15T09:34:02;99647.81;;;13.59;56.23
10060;BME280;5069;49.306;8.636;2023-04-15T09:37:04;99652.44;;;13.55;55.63
10060;BME280;5069;49.306;8.636;2023-04-15T09:40:08;99660.88;;;13.62;56.21
10060;BME280;5069;49.306;8.636;2023-04-15T09:43:10;99665.09;;;13.80;56.79
10060;BME280;5069;49.306;8.636;2023-04-15T09:46:14;99662.19;;;13.85;55.95
10060;BME280;5069;49.306;8.636;2023-04-15T09:49:15;99674.19;;;13.76;54.48
10060;BME280;5069;49.306;8.636;2023-04-15T09:52:40;99671.81;;;13.72;55.33
10060;BME280;5069;49.306;8.636;2023-04-15T09:55:46;99677.44;;;13.65;54.10
10060;BME280;5069;49.306;8.636;2023-04-15T09:58:55;99674.81;;;13.65;54.11
10060;BME280;5069;49.306;8.636;2023-04-15T10:01:57;99677.81;;;13.59;53.40
10060;BME280;5069;49.306;8.636;2023-04-15T10:05:00;99675.75;;;13.64;54.42
10060;BME280;5069;49.306;8.636;2023-04-15T10:08:03;99682.22;;;13.75;53.54
10060;BME280;5069;49.306;8.636;2023-04-15T10:11:05;99683.88;;;13.91;52.40
10060;BME280;5069;49.306;8.636;2023-04-15T10:14:08;99670.97;;;14.15;52.33
10060;BME280;5069;49.306;8.636;2023-04-15T10:17:12;99677.19;;;14.00;51.92
10060;BME280;5069;49.306;8.636;2023-04-15T10:20:18;99679.63;;;13.89;52.41
10060;BME280;5069;49.306;8.636;2023-04-15T10:23:21;99682.84;;;13.94;52.51
10060;BME280;5069;49.306;8.636;2023-04-15T10:26:23;99680.94;;;13.96;52.13
10060;BME280;5069;49.306;8.636;2023-04-15T10:29:25;99689.16;;;14.21;52.98
10060;BME280;5069;49.306;8.636;2023-04-15T10:32:30;99681.34;;;14.34;51.05
10060;BME280;5069;49.306;8.636;2023-04-15T10:35:33;99681.19;;;14.37;51.91
10060;BME280;5069;49.306;8.636;2023-04-15T10:38:44;99683.47;;;14.13;52.25
10060;BME280;5069;49.306;8.636;2023-04-15T10:42:05;99699.50;;;14.26;51.67
10060;BME280;5069;49.306;8.636;2023-04-15T10:45:15;99698.25;;;14.17;52.63
10060;BME280;5069;49.306;8.636;2023-04-15T10:48:18;99699.78;;;14.35;52.90
10060;BME280;5069;49.306;8.636;2023-04-15T10:51:28;99706.66;;;14.39;53.04
10060;BME280;5069;49.306;8.636;2023-04-15T10:54:31;99701.28;;;14.55;53.01
10060;BME280;5069;49.306;8.636;2023-04-15T10:57:37;99708.41;;;14.69;52.41
10060;BME280;5069;49.306;8.636;2023-04-15T11:00:39;99703.00;;;14.56;51.94
10060;BME280;5069;49.306;8.636;2023-04-15T11:03:42;99704.63;;;14.73;51.45
10060;BME280;5069;49.306;8.636;2023-04-15T11:06:44;99711.06;;;14.83;51.27
10060;BME280;5069;49.306;8.636;2023-04-15T11:09:46;99718.16;;;14.68;50.99
10060;BME280;5069;49.306;8.636;2023-04-15T11:13:02;99714.38;;;14.72;51.88
10060;BME280;5069;49.306;8.636;2023-04-15T11:16:04;99723.34;;;14.70;50.62
10060;BME280;5069;49.306;8.636;2023-04-15T11:19:06;99719.94;;;14.82;49.73
10060;BME280;5069;49.306;8.636;2023-04-15T11:22:09;99706.69;;;14.96;47.21
10060;BME280;5069;49.306;8.636;2023-04-15T11:25:23;99710.47;;;15.20;45.46
10060;BME280;5069;49.306;8.636;2023-04-15T11:28:27;99716.13;;;15.43;45.59
10060;BME280;5069;49.306;8.636;2023-04-15T11:31:29;99720.84;;;15.52;43.09
10060;BME280;5069;49.306;8.636;2023-04-15T11:34:52;99728.28;;;15.04;42.98
10060;BME280;5069;49.306;8.636;2023-04-15T11:37:54;99729.63;;;14.97;42.88
10060;BME280;5069;49.306;8.636;2023-04-15T11:40:56;99731.31;;;14.98;42.37
10060;BME280;5069;49.306;8.636;2023-04-15T11:43:58;99732.75;;;15.04;43.04
10060;BME280;5069;49.306;8.636;2023-04-15T11:47:23;99738.63;;;14.95;39.92
10060;BME280;5069;49.306;8.636;2023-04-15T11:50:25;99742.03;;;14.68;40.93
10060;BME280;5069;49.306;8.636;2023-04-15T11:56:50;99746.84;;;14.76;43.09
10060;BME280;5069;49.306;8.636;2023-04-15T11:59:54;99748.94;;;14.71;43.49
10060;BME280;5069;49.306;8.636;2023-04-15T12:03:38;99753.50;;;14.69;43.50
10060;BME280;5069;49.306;8.636;2023-04-15T12:06:41;99758.97;;;14.52;42.69
10060;BME280;5069;49.306;8.636;2023-04-15T12:09:53;99763.09;;;14.41;43.89
10060;BME280;5069;49.306;8.636;2023-04-15T12:12:55;99764.06;;;14.55;43.20
10060;BME280;5069;49.306;8.636;2023-04-15T12:15:57;99767.94;;;14.49;43.54
10060;BME280;5069;49.306;8.636;2023-04-15T12:19:01;99773.91;;;14.53;43.44
10060;BME280;5069;49.306;8.636;2023-04-15T12:22:09;99777.41;;;14.53;43.37
10060;BME280;5069;49.306;8.636;2023-04-15T12:25:33;99774.66;;;14.40;44.91
10060;BME280;5069;49.306;8.636;2023-04-15T12:28:36;99781.88;;;14.53;44.64
10060;BME280;5069;49.306;8.636;2023-04-15T12:31:48;99792.97;;;14.59;44.54
10060;BME280;5069;49.306;8.636;2023-04-15T12:34:52;99797.34;;;14.15;44.20
10060;BME280;5069;49.306;8.636;2023-04-15T12:37:54;99800.44;;;14.07;44.55
10060;BME280;5069;49.306;8.636;2023-04-15T12:40:57;99801.38;;;14.06;45.26
10060;BME280;5069;49.306;8.636;2023-04-15T12:43:59;99798.00;;;14.18;45.88
10060;BME280;5069;49.306;8.636;2023-04-15T12:47:02;99798.91;;;14.03;45.90
10060;BME280;5069;49.306;8.636;2023-04-15T12:50:26;99794.41;;;14.19;45.94
10060;BME280;5069;49.306;8.636;2023-04-15T12:53:28;99812.38;;;14.14;45.90
10060;BME280;5069;49.306;8.636;2023-04-15T12:56:30;99814.97;;;14.16;45.55
10060;BME280;5069;49.306;8.636;2023-04-15T12:59:32;99821.22;;;13.99;45.41
10060;BME280;5069;49.306;8.636;2023-04-15T13:02:34;99817.78;;;13.97;46.61
10060;BME280;5069;49.306;8.636;2023-04-15T13:05:38;99820.97;;;14.03;46.18
10060;BME280;5069;49.306;8.636;2023-04-15T13:08:40;99824.63;;;13.85;46.10
10060;BME280;5069;49.306;8.636;2023-04-15T13:11:55;99827.13;;;13.88;46.76
10060;BME280;5069;49.306;8.636;2023-04-15T13:14:58;99826.44;;;13.85;47.09
10060;BME280;5069;49.306;8.636;2023-04-15T13:17:59;99821.13;;;13.85;47.59
10060;BME280;5069;49.306;8.636;2023-04-15T13:21:02;99825.56;;;13.84;47.36
10060;BME280;5069;49.306;8.636;2023-04-15T13:24:08;99824.56;;;13.87;47.15
10060;BME280;5069;49.306;8.636;2023-04-15T13:27:10;99822.50;;;13.92;47.43
10060;BME280;5069;49.306;8.636;2023-04-15T13:30:36;99825.59;;;14.00;47.11
10060;BME280;5069;49.306;8.636;2023-04-15T13:33:38;99822.75;;;14.03;47.10
10060;BME280;5069;49.306;8.636;2023-04-15T13:37:06;99831.75;;;14.00;47.58
10060;BME280;5069;49.306;8.636;2023-04-15T13:40:09;99826.91;;;14.07;46.37
10060;BME280;5069;49.306;8.636;2023-04-15T13:43:14;99834.53;;;14.13;42.90
10060;BME280;5069;49.306;8.636;2023-04-15T13:46:16;99832.75;;;14.14;40.62
10060;BME280;5069;49.306;8.636;2023-04-15T13:49:18;99849.69;;;14.11;40.42
10060;BME280;5069;49.306;8.636;2023-04-15T13:52:21;99840.41;;;14.18;40.78
10060;BME280;5069;49.306;8.636;2023-04-15T13:55:23;99853.31;;;14.24;40.94
10060;BME280;5069;49.306;8.636;2023-04-15T13:58:27;99853.59;;;14.20;41.09
10060;BME280;5069;49.306;8.636;2023-04-15T14:01:29;99854.78;;;14.14;41.87
10060;BME280;5069;49.306;8.636;2023-04-15T14:04:31;99860.44;;;14.08;42.54
10060;BME280;5069;49.306;8.636;2023-04-15T14:07:33;99864.03;;;13.91;43.60
10060;BME280;5069;49.306;8.636;2023-04-15T14:10:36;99864.22;;;14.04;44.34
10060;BME280;5069;49.306;8.636;2023-04-15T14:13:38;99879.94;;;13.91;45.88
10060;BME280;5069;49.306;8.636;2023-04-15T14:16:40;99879.06;;;13.91;47.32
10060;BME280;5069;49.306;8.636;2023-04-15T14:19:41;99880.97;;;14.04;47.72
10060;BME280;5069;49.306;8.636;2023-04-15T14:22:43;99886.88;;;14.10;48.00
10060;BME280;5069;49.306;8.636;2023-04-15T14:26:07;99892.09;;;14.11;48.93
10060;BME280;5069;49.306;8.636;2023-04-15T14:29:09;99888.31;;;14.15;49.19
10060;BME280;5069;49.306;8.636;2023-04-15T14:32:11;99897.91;;;14.18;49.59
10060;BME280;5069;49.306;8.636;2023-04-15T14:35:15;99897.22;;;14.14;50.10
10060;BME280;5069;49.306;8.636;2023-04-15T14:38:17;99906.34;;;13.93;50.68
10060;BME280;5069;49.306;8.636;2023-04-15T14:41:19;99913.25;;;13.80;51.21
10060;BME280;5069;49.306;8.636;2023-04-15T14:44:23;99922.97;;;13.63;52.20
10060;BME280;5069;49.306;8.636;2023-04-15T14:47:42;99921.53;;;13.74;52.09
10060;BME280;5069;49.306;8.636;2023-04-15T14:50:44;99928.06;;;13.51;53.01
10060;BME280;5069;49.306;8.636;2023-04-15T14:53:46;99940.69;;;13.46;54.20
10060;BME280;5069;49.306;8.636;2023-04-15T14:56:49;99944.75;;;13.36;54.85
10060;BME280;5069;49.306;8.636;2023-04-15T14:59:51;99946.16;;;13.43;55.36
10060;BME280;5069;49.306;8.636;2023-04-15T15:02:59;99964.16;;;13.36;56.74
10060;BME280;5069;49.306;8.636;2023-04-15T15:06:02;99963.97;;;13.22;58.44
10060;BME280;5069;49.306;8.636;2023-04-15T15:09:04;99978.03;;;13.05;60.96
10060;BME280;5069;49.306;8.636;2023-04-15T15:12:06;99983.88;;;12.95;63.42
10060;BME280;5069;49.306;8.636;2023-04-15T15:15:08;99983.72;;;12.98;64.81
10060;BME280;5069;49.306;8.636;2023-04-15T15:18:29;99994.59;;;12.74;67.35
10060;BME280;5069;49.306;8.636;2023-04-15T15:21:31;100006.63;;;12.63;68.38
10060;BME280;5069;49.306;8.636;2023-04-15T15:24:33;100003.25;;;12.59;69.16
10060;BME280;5069;49.306;8.636;2023-04-15T15:27:34;100009.63;;;12.55;70.44
10060;BME280;5069;49.306;8.636;2023-04-15T15:30:39;100021.63;;;12.43;71.47
10060;BME280;5069;49.306;8.636;2023-04-15T15:33:40;100023.50;;;12.23;74.06
10060;BME280;5069;49.306;8.636;2023-04-15T15:37:04;100026.81;;;12.08;78.05
10060;BME280;5069;49.306;8.636;2023-04-15T15:40:07;100040.19;;;12.05;81.50
10060;BME280;5069;49.306;8.636;2023-04-15T15:43:08;100049.94;;;12.02;83.64
10060;BME280;5069;49.306;8.636;2023-04-15T15:46:10;100050.97;;;11.80;84.78
10060;BME280;5069;49.306;8.636;2023-04-15T15:49:12;100050.41;;;11.73;90.42
10060;BME280;5069;49.306;8.636;2023-04-15T15:52:14;100057.88;;;11.62;89.49
10060;BME280;5069;49.306;8.636;2023-04-15T15:55:17;100066.19;;;11.53;93.43
10060;BME280;5069;49.306;8.636;2023-04-15T15:58:19;100070.56;;;11.54;94.33
10060;BME280;5069;49.306;8.636;2023-04-15T16:01:21;100079.72;;;11.45;95.12
10060;BME280;5069;49.306;8.636;2023-04-15T16:04:24;100086.75;;;11.45;97.03
10060;BME280;5069;49.306;8.636;2023-04-15T16:07:26;100078.06;;;11.43;98.54
10060;BME280;5069;49.306;8.636;2023-04-15T16:10:28;100083.88;;;11.31;100.00
10060;BME280;5069;49.306;8.636;2023-04-15T16:13:29;100086.47;;;11.10;100.00
10060;BME280;5069;49.306;8.636;2023-04-15T16:16:31;100093.56;;;11.08;100.00
10060;BME280;5069;49.306;8.636;2023-04-15T16:19:33;100097.13;;;11.07;100.00
10060;BME280;5069;49.306;8.636;2023-04-15T16:22:35;100103.88;;;10.93;100.00
10060;BME280;5069;49.306;8.636;2023-04-15T16:25:37;100106.53;;;10.93;100.00
10060;BME280;5069;49.306;8.636;2023-04-15T16:28:39;100112.09;;;10.85;100.00
10060;BME280;5069;49.306;8.636;2023-04-15T16:31:41;100116.63;;;10.82;100.00
10060;BME280;5069;49.306;8.636;2023-04-15T16:34:43;100115.16;;;10.96;100.00
10060;BME280;5069;49.306;8.636;2023-04-15T16:37:45;100130.84;;;10.99;100.00